createdAt,value
2018-12-30T00:02:12.842Z,78.25
2018-12-30T00:04:40.478Z,78.63
2018-12-30T00:07:08.727Z,78.75
2018-12-30T00:09:36.699Z,79.33
2018-12-30T00:12:04.318Z,79.42
2018-12-30T00:14:32.230Z,79.77
2018-12-30T00:16:59.844Z,80.56
2018-12-30T00:19:27.753Z,81.22
2018-12-30T00:21:55.382Z,81.72
2018-12-30T00:24:23.384Z,81.59
2018-12-30T00:26:51.359Z,82.15
2018-12-30T00:29:19.330Z,82.13
2018-12-30T00:31:47.297Z,82.34
2018-12-30T00:34:14.939Z,82.40
2018-12-30T00:36:42.829Z,81.87
2018-12-30T00:39:11.121Z,81.63
2018-12-30T00:41:39.078Z,81.07
2018-12-30T00:44:06.792Z,81.07
2018-12-30T00:46:34.707Z,81.40
2018-12-30T00:49:02.332Z,82.14
2018-12-30T00:51:30.233Z,81.99
2018-12-30T00:53:58.141Z,80.78
2018-12-30T00:56:26.073Z,81.06
2018-12-30T00:58:53.704Z,81.13
2018-12-30T01:01:21.619Z,80.59
2018-12-30T01:03:49.578Z,80.67
2018-12-30T01:06:17.549Z,80.16
2018-12-30T01:08:45.716Z,79.50
2018-12-30T01:11:13.581Z,79.47
2018-12-30T01:13:41.555Z,79.57
2018-12-30T01:16:09.519Z,79.57
2018-12-30T01:18:37.144Z,78.93
2018-12-30T01:21:04.763Z,79.31
2018-12-30T01:23:32.385Z,79.29
2018-12-30T01:26:00.001Z,80.86
2018-12-30T01:28:28.548Z,80.86
2018-12-30T01:30:56.518Z,80.80
2018-12-30T01:33:24.490Z,81.71
2018-12-30T01:35:52.458Z,81.92
2018-12-30T01:38:20.280Z,82.53
2018-12-30T01:40:48.216Z,82.56
2018-12-30T01:43:15.834Z,82.69
2018-12-30T01:45:43.723Z,83.13
2018-12-30T01:48:11.694Z,82.77
2018-12-30T01:50:39.661Z,82.77
2018-12-30T01:53:07.835Z,82.46
2018-12-30T01:55:35.534Z,82.75
2018-12-30T01:58:03.471Z,82.58
2018-12-30T02:00:31.097Z,82.58
2018-12-30T02:02:59.007Z,83.00
2018-12-30T02:05:26.966Z,83.06
2018-12-30T02:07:54.935Z,83.41
2018-12-30T02:10:22.820Z,83.46
2018-12-30T02:12:50.780Z,83.42
2018-12-30T02:15:18.743Z,82.95
2018-12-30T02:17:46.714Z,82.95
2018-12-30T02:20:15.000Z,82.57
2018-12-30T02:22:42.622Z,83.48
2018-12-30T02:25:10.254Z,83.48
2018-12-30T02:27:38.198Z,83.00
2018-12-30T02:30:06.159Z,82.30
2018-12-30T02:32:33.771Z,83.26
2018-12-30T02:35:01.413Z,83.14
2018-12-30T02:37:29.344Z,83.97
2018-12-30T02:39:57.009Z,83.84
2018-12-30T02:42:24.616Z,84.13
2018-12-30T02:44:52.539Z,84.13
2018-12-30T02:47:20.437Z,84.72
2018-12-30T02:49:48.132Z,84.73
2018-12-30T02:52:16.045Z,85.25
2018-12-30T02:54:43.679Z,84.87
2018-12-30T02:57:11.299Z,84.97
2018-12-30T02:59:39.229Z,85.03
2018-12-30T03:02:07.196Z,84.94
2018-12-30T03:04:34.829Z,85.46
2018-12-30T03:07:02.725Z,85.40
2018-12-30T03:09:30.698Z,85.84
2018-12-30T03:11:58.315Z,85.51
2018-12-30T03:14:26.330Z,85.77
2018-12-30T03:16:54.031Z,85.90
2018-12-30T03:19:21.662Z,85.92
2018-12-30T03:21:49.724Z,85.55
2018-12-30T03:24:17.352Z,85.68
2018-12-30T03:26:45.263Z,85.49
2018-12-30T03:29:12.887Z,85.43
2018-12-30T03:31:40.871Z,85.74
2018-12-30T03:34:08.474Z,86.23
2018-12-30T03:36:36.434Z,86.49
2018-12-30T03:39:04.596Z,86.49
2018-12-30T03:41:32.298Z,87.01
2018-12-30T03:44:00.222Z,87.11
2018-12-30T03:46:27.853Z,87.49
2018-12-30T03:48:55.755Z,86.98
2018-12-30T03:51:23.395Z,87.39
2018-12-30T03:53:51.282Z,87.14
2018-12-30T03:56:18.906Z,87.23
2018-12-30T03:58:46.528Z,87.24
2018-12-30T04:01:14.232Z,87.37
2018-12-30T04:03:42.140Z,87.53
2018-12-30T04:06:10.108Z,87.58
2018-12-30T04:08:37.724Z,87.58
2018-12-30T04:11:05.658Z,87.74
2018-12-30T04:13:33.608Z,87.59
2018-12-30T04:16:01.579Z,87.81
2018-12-30T04:18:29.650Z,88.05
2018-12-30T04:20:57.292Z,88.33
2018-12-30T04:23:25.180Z,88.52
2018-12-30T04:25:53.231Z,88.52
2018-12-30T04:28:20.841Z,88.57
2018-12-30T04:30:48.470Z,89.01
2018-12-30T04:33:16.445Z,89.14
2018-12-30T04:35:44.409Z,89.14
2018-12-30T04:38:12.486Z,88.91
2018-12-30T04:40:40.108Z,89.29
2018-12-30T04:43:08.018Z,89.29
2018-12-30T04:45:36.089Z,88.97
2018-12-30T04:48:03.708Z,89.00
2018-12-30T04:50:31.617Z,89.20
2018-12-30T04:52:59.687Z,89.04
2018-12-30T04:55:27.662Z,88.95
2018-12-30T04:57:55.290Z,88.98
2018-12-30T05:00:23.227Z,89.23
2018-12-30T05:02:51.154Z,89.45
2018-12-30T05:05:18.788Z,89.33
2018-12-30T05:07:46.685Z,89.39
2018-12-30T05:10:14.655Z,89.39
2018-12-30T05:12:42.275Z,89.80
2018-12-30T05:15:10.204Z,89.80
2018-12-30T05:17:38.154Z,89.98
2018-12-30T05:20:06.128Z,90.04
2018-12-30T05:22:34.235Z,90.03
2018-12-30T05:25:02.089Z,89.78
2018-12-30T05:27:30.134Z,89.84
2018-12-30T05:29:57.767Z,89.84
2018-12-30T05:32:25.403Z,89.70
2018-12-30T05:34:53.432Z,89.75
2018-12-30T05:37:21.066Z,89.63
2018-12-30T05:39:48.691Z,89.73
2018-12-30T05:42:16.321Z,89.51
2018-12-30T05:44:44.307Z,89.80
2018-12-30T05:47:12.257Z,90.03
2018-12-30T05:49:39.869Z,90.03
2018-12-30T05:52:07.786Z,89.74
2018-12-30T05:54:36.266Z,89.60
2018-12-30T05:57:04.254Z,89.67
2018-12-30T05:59:32.313Z,89.67
2018-12-30T06:02:00.287Z,89.95
2018-12-30T06:04:27.895Z,90.13
2018-12-30T06:06:55.527Z,90.27
2018-12-30T06:09:23.469Z,90.46
2018-12-30T06:11:51.438Z,90.50
2018-12-30T06:14:19.515Z,90.14
2018-12-30T06:16:47.481Z,90.14
2018-12-30T06:19:15.653Z,89.39
2018-12-30T06:21:43.275Z,89.66
2018-12-30T06:24:11.188Z,89.40
2018-12-30T06:26:38.824Z,89.52
2018-12-30T06:29:06.709Z,89.55
2018-12-30T06:31:34.701Z,89.55
2018-12-30T06:34:02.316Z,89.65
2018-12-30T06:36:29.942Z,89.75
2018-12-30T06:38:57.873Z,89.41
2018-12-30T06:41:26.048Z,89.41
2018-12-30T06:43:53.665Z,89.70
2018-12-30T06:46:21.585Z,89.76
2018-12-30T06:48:49.211Z,89.96
2018-12-30T06:51:17.106Z,89.54
2018-12-30T06:53:45.080Z,89.61
2018-12-30T06:56:13.049Z,89.22
2018-12-30T06:58:41.017Z,89.22
2018-12-30T07:01:08.645Z,88.73
2018-12-30T07:03:36.569Z,88.92
2018-12-30T07:06:04.526Z,88.92
2018-12-30T07:08:32.490Z,88.71
2018-12-30T07:11:00.454Z,88.94
2018-12-30T07:13:28.428Z,89.20
2018-12-30T07:15:56.074Z,89.20
2018-12-30T07:18:23.962Z,89.96
2018-12-30T07:20:51.581Z,89.96
2018-12-30T07:23:19.283Z,89.90
2018-12-30T07:25:47.250Z,89.90
2018-12-30T07:28:15.219Z,89.80
2018-12-30T07:30:43.190Z,89.74
2018-12-30T07:33:10.821Z,89.91
2018-12-30T07:35:38.719Z,89.72
2018-12-30T07:38:06.358Z,89.70
2018-12-30T07:40:34.246Z,89.55
2018-12-30T07:43:01.890Z,89.32
2018-12-30T07:45:29.515Z,89.14
2018-12-30T07:47:57.145Z,89.08
2018-12-30T07:50:25.103Z,88.74
2018-12-30T07:52:52.737Z,88.71
2018-12-30T07:55:20.732Z,88.39
2018-12-30T07:57:48.704Z,88.01
2018-12-30T08:00:16.329Z,87.94
2018-12-30T08:02:44.238Z,87.64
2018-12-30T08:05:11.864Z,87.52
2018-12-30T08:07:39.761Z,87.39
2018-12-30T08:10:07.731Z,87.39
2018-12-30T08:12:35.702Z,87.33
2018-12-30T08:15:03.678Z,87.21
2018-12-30T08:17:31.790Z,87.18
2018-12-30T08:19:59.437Z,87.28
2018-12-30T08:22:27.046Z,87.83
2018-12-30T08:24:54.939Z,87.83
2018-12-30T08:27:23.230Z,86.71
2018-12-30T08:29:51.184Z,87.10
2018-12-30T08:32:19.164Z,85.81
2018-12-30T08:34:47.121Z,85.86
2018-12-30T08:37:15.094Z,85.19
2018-12-30T08:39:42.722Z,85.53
2018-12-30T08:42:10.345Z,84.98
2018-12-30T08:44:38.288Z,83.93
2018-12-30T08:47:06.277Z,83.60
2018-12-30T08:49:34.221Z,82.83
2018-12-30T08:52:02.199Z,82.83
2018-12-30T08:54:30.180Z,82.73
2018-12-30T08:56:57.802Z,81.06
2018-12-30T08:59:25.691Z,81.06
2018-12-30T09:01:53.665Z,80.24
2018-12-30T09:04:21.285Z,80.30
2018-12-30T09:06:48.932Z,79.96
2018-12-30T09:09:16.856Z,80.38
2018-12-30T09:11:44.935Z,79.97
2018-12-30T09:14:12.900Z,78.99
2018-12-30T09:16:40.874Z,79.04
2018-12-30T09:19:08.854Z,77.90
2018-12-30T09:21:36.480Z,77.90
2018-12-30T09:24:04.300Z,77.49
2018-12-30T09:26:32.354Z,76.96
2018-12-30T09:28:59.978Z,77.57
2018-12-30T09:31:27.865Z,76.77
2018-12-30T09:33:55.489Z,77.25
2018-12-30T09:36:23.104Z,77.22
2018-12-30T09:38:51.059Z,76.21
2018-12-30T09:41:18.923Z,76.64
2018-12-30T09:43:46.795Z,76.92
2018-12-30T09:46:14.768Z,77.00
2018-12-30T09:48:42.834Z,76.45
2018-12-30T09:51:10.909Z,76.45
2018-12-30T09:53:45.028Z,75.99
2018-12-30T09:56:07.919Z,75.99
2018-12-30T09:58:36.150Z,76.50
2018-12-30T10:01:04.125Z,76.19
2018-12-30T10:03:32.083Z,75.60
2018-12-30T10:05:59.702Z,75.68
2018-12-30T10:08:27.343Z,75.93
2018-12-30T10:10:54.957Z,75.66
2018-12-30T10:13:22.940Z,75.91
2018-12-30T10:15:51.930Z,75.91
2018-12-30T10:18:19.918Z,75.44
2018-12-30T10:20:47.881Z,75.78
2018-12-30T10:23:15.492Z,74.93
2018-12-30T10:25:43.405Z,75.78
2018-12-30T10:28:11.371Z,76.20
2018-12-30T10:30:39.358Z,75.12
2018-12-30T10:33:07.434Z,74.82
2018-12-30T10:35:35.386Z,75.23
2018-12-30T10:38:03.028Z,74.38
2018-12-30T10:40:31.013Z,74.38
2018-12-30T10:42:58.991Z,74.54
2018-12-30T10:45:26.607Z,74.42
2018-12-30T10:47:54.516Z,73.91
2018-12-30T10:50:22.484Z,74.60
2018-12-30T10:52:50.466Z,75.03
2018-12-30T10:55:18.074Z,74.10
2018-12-30T10:57:46.192Z,73.44
2018-12-30T11:00:14.157Z,73.44
2018-12-30T11:02:41.788Z,74.27
2018-12-30T11:05:09.407Z,74.27
2018-12-30T11:07:37.020Z,74.43
2018-12-30T11:10:04.641Z,73.80
2018-12-30T11:12:32.590Z,73.41
2018-12-30T11:15:00.219Z,73.55
2018-12-30T11:17:28.510Z,73.39
2018-12-30T11:19:56.485Z,74.37
2018-12-30T11:22:24.450Z,72.97
2018-12-30T11:24:52.425Z,73.63
2018-12-30T11:27:20.389Z,73.09
2018-12-30T11:29:48.005Z,73.21
2018-12-30T11:32:15.917Z,74.37
2018-12-30T11:34:43.895Z,73.81
2018-12-30T11:37:11.509Z,73.03
2018-12-30T11:39:39.129Z,72.88
2018-12-30T11:42:06.742Z,72.79
2018-12-30T11:44:34.644Z,72.78
2018-12-30T11:47:02.630Z,73.48
2018-12-30T11:49:30.262Z,72.57
2018-12-30T11:51:58.245Z,73.11
2018-12-30T11:54:26.215Z,72.75
2018-12-30T11:56:53.834Z,72.75
2018-12-30T11:59:21.747Z,73.12
2018-12-30T12:01:49.363Z,73.71
2018-12-30T12:04:16.992Z,73.02
2018-12-30T12:06:44.631Z,73.03
2018-12-30T12:09:12.595Z,73.03
2018-12-30T12:11:40.213Z,73.27
2018-12-30T12:14:08.127Z,73.27
2018-12-30T12:16:35.747Z,73.17
2018-12-30T12:19:03.478Z,73.95
2018-12-30T12:21:31.418Z,73.26
2018-12-30T12:23:59.044Z,73.64
2018-12-30T12:26:26.663Z,74.24
2018-12-30T12:28:54.618Z,75.00
2018-12-30T12:31:22.248Z,75.61
2018-12-30T12:33:52.232Z,76.38
2018-12-30T12:36:20.165Z,75.49
2018-12-30T12:38:48.131Z,75.79
2018-12-30T12:41:15.858Z,76.05
2018-12-30T12:43:43.766Z,76.36
2018-12-30T12:46:11.380Z,76.23
2018-12-30T12:48:39.294Z,76.07
2018-12-30T12:51:07.263Z,76.24
2018-12-30T12:53:35.230Z,76.68
2018-12-30T12:56:03.116Z,76.56
2018-12-30T12:58:31.086Z,76.22
2018-12-30T13:00:59.035Z,75.51
2018-12-30T13:03:27.011Z,75.30
2018-12-30T13:05:54.654Z,75.20
2018-12-30T13:08:22.536Z,74.82
2018-12-30T13:10:50.508Z,74.47
2018-12-30T13:13:18.137Z,74.82
2018-12-30T13:15:46.008Z,75.21
2018-12-30T13:18:14.003Z,74.90
2018-12-30T13:20:42.060Z,74.90
2018-12-30T13:23:09.946Z,75.28
2018-12-30T13:25:37.918Z,75.43
2018-12-30T13:28:05.882Z,74.89
2018-12-30T13:30:33.578Z,75.22
2018-12-30T13:33:01.192Z,75.21
2018-12-30T13:35:29.094Z,75.71
2018-12-30T13:37:57.047Z,76.28
2018-12-30T13:40:24.669Z,75.66
2018-12-30T13:42:52.575Z,76.08
2018-12-30T13:45:20.195Z,75.64
2018-12-30T13:47:48.108Z,75.81
2018-12-30T13:50:16.180Z,75.73
2018-12-30T13:52:43.842Z,75.65
2018-12-30T13:55:11.826Z,75.03
2018-12-30T13:57:39.896Z,74.26
2018-12-30T14:00:07.522Z,74.42
2018-12-30T14:02:35.412Z,74.08
2018-12-30T14:05:03.046Z,73.57
2018-12-30T14:07:30.681Z,73.83
2018-12-30T14:09:58.604Z,73.83
2018-12-30T14:12:26.588Z,73.72
2018-12-30T14:14:54.665Z,73.62
2018-12-30T14:17:22.275Z,73.78
2018-12-30T14:19:50.198Z,73.81
2018-12-30T14:22:17.824Z,74.00
2018-12-30T14:24:46.729Z,74.10
2018-12-30T14:27:14.342Z,74.10
2018-12-30T14:29:42.260Z,73.15
2018-12-30T14:32:09.876Z,73.53
2018-12-30T14:34:37.791Z,73.16
2018-12-30T14:37:05.871Z,72.19
2018-12-30T14:39:33.830Z,72.50
2018-12-30T14:42:01.456Z,72.49
2018-12-30T14:44:29.079Z,72.69
2018-12-30T14:46:56.701Z,72.84
2018-12-30T14:49:24.586Z,73.32
2018-12-30T14:51:52.552Z,73.24
2018-12-30T14:54:20.629Z,73.75
2018-12-30T14:56:48.598Z,73.88
2018-12-30T14:59:16.213Z,73.94
2018-12-30T15:01:44.125Z,74.22
2018-12-30T15:04:11.745Z,74.00
2018-12-30T15:06:39.652Z,73.66
2018-12-30T15:09:07.271Z,73.98
2018-12-30T15:11:34.895Z,73.99
2018-12-30T15:14:02.844Z,73.91
2018-12-30T15:16:30.922Z,73.91
2018-12-30T15:18:58.533Z,74.08
2018-12-30T15:21:26.447Z,73.56
2018-12-30T15:23:54.060Z,73.29
2018-12-30T15:26:21.676Z,73.79
2018-12-30T15:28:49.643Z,73.55
2018-12-30T15:31:17.612Z,73.43
2018-12-30T15:33:45.228Z,73.05
2018-12-30T15:36:12.846Z,73.10
2018-12-30T15:38:40.458Z,73.03
2018-12-30T15:41:08.086Z,72.80
2018-12-30T15:43:36.022Z,72.89
2018-12-30T15:46:03.996Z,72.89
2018-12-30T15:48:31.606Z,72.75
2018-12-30T15:50:59.521Z,72.39
2018-12-30T15:53:27.143Z,72.44
2018-12-30T15:55:54.761Z,72.82
2018-12-30T15:58:22.377Z,72.92
2018-12-30T16:00:49.999Z,72.46
2018-12-30T16:03:17.954Z,72.60
2018-12-30T16:05:45.665Z,72.24
2018-12-30T16:08:13.281Z,72.28
2018-12-30T16:10:40.903Z,72.51
2018-12-30T16:13:08.519Z,72.85
2018-12-30T16:15:36.451Z,72.86
2018-12-30T16:18:04.339Z,72.71
2018-12-30T16:20:31.963Z,72.89
2018-12-30T16:22:59.854Z,73.00
2018-12-30T16:25:27.624Z,73.62
2018-12-30T16:27:55.502Z,73.24
2018-12-30T16:30:23.454Z,73.42
2018-12-30T16:32:51.425Z,73.45
2018-12-30T16:35:19.127Z,73.45
2018-12-30T16:37:46.737Z,73.65
2018-12-30T16:40:14.615Z,73.35
2018-12-30T16:42:42.584Z,73.46
2018-12-30T16:45:10.193Z,73.50
2018-12-30T16:47:41.801Z,72.97
2018-12-30T16:50:07.432Z,73.73
2018-12-30T16:52:35.388Z,72.92
2018-12-30T16:55:03.251Z,73.15
2018-12-30T16:57:30.879Z,73.51
2018-12-30T16:59:58.786Z,73.42
2018-12-30T17:02:26.765Z,74.08
2018-12-30T17:04:54.720Z,74.08
2018-12-30T17:07:22.352Z,74.06
2018-12-30T17:09:50.252Z,73.89
2018-12-30T17:12:18.219Z,74.43
2018-12-30T17:14:46.189Z,74.25
2018-12-30T17:17:13.815Z,74.10
2018-12-30T17:19:41.717Z,74.06
2018-12-30T17:22:09.352Z,74.06
2018-12-30T17:24:37.244Z,74.71
2018-12-30T17:27:05.304Z,74.82
2018-12-30T17:29:33.186Z,74.95
2018-12-30T17:32:02.178Z,74.83
2018-12-30T17:34:29.948Z,74.89
2018-12-30T17:36:57.921Z,74.61
2018-12-30T17:39:25.885Z,75.23
2018-12-30T17:41:53.506Z,75.47
2018-12-30T17:44:21.414Z,75.77
2018-12-30T17:46:49.403Z,75.87
2018-12-30T17:49:17.363Z,76.34
2018-12-30T17:51:45.321Z,76.25
2018-12-30T17:54:15.326Z,76.27
2018-12-30T17:56:42.259Z,76.36
2018-12-30T17:59:09.865Z,76.62
2018-12-30T18:01:37.485Z,76.26
2018-12-30T18:04:05.380Z,75.91
2018-12-30T18:06:33.347Z,76.00
2018-12-30T18:09:00.958Z,75.92
2018-12-30T18:11:28.977Z,75.44
2018-12-30T18:13:56.847Z,75.44
2018-12-30T18:16:24.813Z,75.69
2018-12-30T18:18:52.681Z,75.54
2018-12-30T18:21:20.305Z,76.07
2018-12-30T18:23:47.925Z,76.42
2018-12-30T18:26:15.921Z,76.48
2018-12-30T18:28:43.841Z,76.10
2018-12-30T18:31:11.715Z,76.24
2018-12-30T18:33:39.577Z,76.16
2018-12-30T18:36:07.205Z,76.02
2018-12-30T18:38:34.811Z,76.06
2018-12-30T18:41:02.779Z,76.06
2018-12-30T18:43:30.401Z,75.96
2018-12-30T18:45:58.298Z,76.37
2018-12-30T18:48:26.169Z,76.04
2018-12-30T18:50:54.033Z,76.04
2018-12-30T18:53:22.007Z,76.04
2018-12-30T18:55:49.633Z,76.16
2018-12-30T18:58:17.536Z,76.42
2018-12-30T19:00:45.420Z,75.87
2018-12-30T19:03:13.039Z,75.86
2018-12-30T19:05:40.937Z,76.09
2018-12-30T19:08:08.797Z,75.92
2018-12-30T19:10:36.769Z,74.96
2018-12-30T19:13:04.738Z,75.79
2018-12-30T19:15:32.767Z,75.02
2018-12-30T19:18:00.625Z,74.32
2018-12-30T19:20:28.547Z,74.06
2018-12-30T19:22:56.823Z,74.66
2018-12-30T19:25:24.904Z,74.66
2018-12-30T19:27:53.416Z,74.60
2018-12-30T19:30:21.361Z,74.97
2018-12-30T19:32:49.024Z,76.14
2018-12-30T19:35:16.981Z,75.92
2018-12-30T19:37:45.052Z,75.92
2018-12-30T19:40:12.666Z,76.49
2018-12-30T19:42:40.599Z,76.49
2018-12-30T19:45:08.549Z,76.43
2018-12-30T19:47:36.174Z,76.66
2018-12-30T19:50:03.863Z,76.80
2018-12-30T19:52:31.492Z,76.97
2018-12-30T19:54:59.401Z,77.30
2018-12-30T19:57:27.379Z,77.44
2018-12-30T19:59:55.367Z,77.44
2018-12-30T20:02:23.313Z,77.50
2018-12-30T20:04:51.188Z,77.70
2018-12-30T20:07:19.171Z,77.68
2018-12-30T20:09:46.788Z,77.38
2018-12-30T20:12:14.683Z,77.36
2018-12-30T20:14:43.532Z,77.36
2018-12-30T20:17:11.441Z,77.36
2018-12-30T20:19:39.053Z,77.94
2018-12-30T20:22:06.972Z,77.66
2018-12-30T20:24:34.836Z,77.54
2018-12-30T20:27:02.811Z,78.03
2018-12-30T20:29:30.783Z,77.83
2018-12-30T20:31:58.751Z,77.83
2018-12-30T20:34:26.773Z,77.40
2018-12-30T20:36:54.991Z,77.52
2018-12-30T20:39:22.614Z,77.22
2018-12-30T20:41:50.233Z,77.70
2018-12-30T20:44:18.188Z,77.51
2018-12-30T20:46:46.154Z,77.51
2018-12-30T20:49:13.846Z,77.96
2018-12-30T20:51:41.787Z,77.92
2018-12-30T20:54:09.403Z,77.92
2018-12-30T20:56:37.774Z,77.87
2018-12-30T20:59:05.712Z,77.64
2018-12-30T21:01:33.661Z,77.49
2018-12-30T21:04:01.284Z,77.47
2018-12-30T21:06:28.903Z,77.73
2018-12-30T21:08:56.857Z,77.34
2018-12-30T21:11:24.825Z,77.15
2018-12-30T21:13:52.464Z,76.88
2018-12-30T21:16:20.357Z,76.88
2018-12-30T21:18:47.975Z,76.78
2018-12-30T21:21:16.194Z,76.88
2018-12-30T21:23:44.177Z,77.06
2018-12-30T21:26:12.128Z,77.15
2018-12-30T21:28:39.762Z,77.33
2018-12-30T21:31:07.460Z,77.08
2018-12-30T21:33:35.155Z,77.92
2018-12-30T21:36:02.777Z,77.98
2018-12-30T21:38:30.401Z,77.98
2018-12-30T21:40:58.021Z,78.91
2018-12-30T21:43:25.999Z,78.91
2018-12-30T22:00:32.032Z,79.41
2018-12-30T22:02:59.667Z,79.37
2018-12-30T22:05:27.562Z,79.95
2018-12-30T22:07:55.538Z,79.95
2018-12-30T22:10:23.400Z,80.11
2018-12-30T22:12:51.034Z,80.11
2018-12-30T22:15:18.661Z,80.38
2018-12-30T22:17:46.295Z,80.23
2018-12-30T22:20:14.256Z,80.35
2018-12-30T22:22:41.883Z,80.27
2018-12-30T22:25:09.785Z,80.27
2018-12-30T22:27:37.753Z,80.30
2018-12-30T22:30:05.377Z,80.32
2018-12-30T22:32:33.283Z,80.02
2018-12-30T22:35:01.255Z,79.99
2018-12-30T22:37:28.869Z,80.12
2018-12-30T22:39:56.790Z,80.12
2018-12-30T22:42:32.534Z,80.48
2018-12-30T22:44:54.050Z,81.08
2018-12-30T22:47:21.673Z,81.08
2018-12-30T22:49:49.586Z,81.08
2018-12-30T22:52:17.551Z,81.09
2018-12-30T22:54:45.173Z,81.12
2018-12-30T22:57:12.811Z,81.22
2018-12-30T22:59:40.742Z,81.64
2018-12-30T23:02:08.709Z,81.64
2018-12-30T23:04:36.335Z,81.59
2018-12-30T23:07:03.963Z,81.59
2018-12-30T23:09:31.921Z,81.22
2018-12-30T23:11:59.537Z,81.22
2018-12-30T23:14:27.538Z,81.69
2018-12-30T23:16:55.817Z,81.90
2018-12-30T23:19:23.443Z,82.54
2018-12-30T23:21:51.446Z,82.88
2018-12-30T23:24:19.083Z,82.96
2018-12-30T23:26:46.973Z,82.65
2018-12-30T23:29:14.948Z,82.65
2018-12-30T23:31:42.919Z,82.59
2018-12-30T23:34:10.552Z,82.68
2018-12-30T23:36:38.448Z,82.43
2018-12-30T23:39:06.073Z,82.27
2018-12-30T23:41:33.699Z,82.40
2018-12-30T23:44:01.350Z,82.49
2018-12-30T23:46:29.299Z,82.39
2018-12-30T23:48:57.272Z,82.57
2018-12-30T23:51:25.242Z,82.73
2018-12-30T23:53:52.883Z,82.81
2018-12-30T23:56:20.873Z,82.84
2018-12-30T23:58:48.493Z,83.20
